Time;durP1;ratioP1;P1;durP2;ratioP2;P2;SDS_P1;SDS_P2;PMS_P1;PMS_P2;Temp;Humidity;BMP_temperature;BMP_pressure;BME280_temperature;BME280_humidity;BME280_pressure;Samples;Min_cycle;Max_cycle;Signal;HPM_P1;HPM_P2
2022/07/07 00:02:10;;;;;;;0.70;0.20;;;19.80;99.90;;;;;;4955467;29;20455;-76
2022/07/07 00:04:38;;;;;;;0.60;0.10;;;19.80;99.90;;;;;;4955000;29;20483;-76
2022/07/07 00:07:06;;;;;;;0.60;0.10;;;19.80;99.90;;;;;;4968540;29;20861;-76
2022/07/07 00:09:35;;;;;;;0.77;0.30;;;19.80;99.90;;;;;;4968268;29;20466;-77
2022/07/07 00:12:04;;;;;;;0.60;0.10;;;;;;;;;;4966876;29;20482;-77
2022/07/07 00:14:32;;;;;;;0.60;0.10;;;19.80;99.90;;;;;;4964903;29;20443;-77
2022/07/07 00:17:00;;;;;;;0.60;0.10;;;19.80;99.90;;;;;;4954780;29;20475;-77
2022/07/07 00:19:28;;;;;;;0.60;0.10;;;19.80;99.90;;;;;;4964162;29;20718;-77
2022/07/07 00:21:56;;;;;;;0.60;0.10;;;19.80;99.90;;;;;;4951979;29;20538;-77
2022/07/07 00:24:24;;;;;;;0.70;0.20;;;19.80;99.90;;;;;;4934918;29;20499;-77
2022/07/07 00:26:54;;;;;;;0.70;0.40;;;19.80;99.90;;;;;;4930809;29;20562;-77
2022/07/07 00:29:22;;;;;;;0.60;0.13;;;19.80;99.90;;;;;;4943455;29;20463;-76
2022/07/07 00:31:50;;;;;;;0.60;0.20;;;19.70;99.90;;;;;;4938880;29;20460;-78
2022/07/07 00:34:18;;;;;;;0.60;0.10;;;19.70;99.90;;;;;;4938618;29;20535;-77
2022/07/07 00:36:46;;;;;;;0.60;0.10;;;19.70;99.90;;;;;;4937864;29;20611;-77
2022/07/07 00:39:14;;;;;;;0.60;0.10;;;19.70;99.90;;;;;;4939771;29;20822;-77
2022/07/07 00:41:42;;;;;;;0.70;0.20;;;19.70;99.90;;;;;;4939780;29;20452;-76
2022/07/07 00:44:14;;;;;;;0.60;0.10;;;19.70;99.90;;;;;;4942724;29;20483;-77
2022/07/07 00:46:45;;;;;;;0.70;0.27;;;19.70;99.90;;;;;;4956851;29;20547;-77
2022/07/07 00:49:14;;;;;;;0.60;0.20;;;19.70;99.90;;;;;;4950029;29;20547;-76
2022/07/07 00:51:43;;;;;;;0.60;0.13;;;19.60;99.90;;;;;;4939505;29;20875;-77
2022/07/07 00:54:12;;;;;;;0.60;0.20;;;19.60;99.90;;;;;;4953852;29;20485;-77
2022/07/07 00:56:40;;;;;;;0.70;0.20;;;19.60;99.90;;;;;;4964179;29;20557;-76
2022/07/07 00:59:09;;;;;;;0.60;0.20;;;19.50;99.90;;;;;;4960083;29;20454;-76
2022/07/07 01:01:41;;;;;;;0.60;0.20;;;19.50;99.90;;;;;;4956293;29;20455;-77
2022/07/07 01:04:11;;;;;;;0.60;0.20;;;19.40;99.90;;;;;;4951186;29;20490;-78
2022/07/07 01:06:39;;;;;;;0.60;0.20;;;19.40;99.90;;;;;;4940412;29;20456;-77
2022/07/07 01:09:08;;;;;;;0.60;0.20;;;19.40;99.90;;;;;;4941705;29;20455;-77
2022/07/07 01:11:46;;;;;;;1.67;0.20;;;19.30;99.90;;;;;;4940814;29;20495;-77
2022/07/07 01:14:14;;;;;;;0.60;0.10;;;19.20;99.90;;;;;;4949718;29;20485;-77
2022/07/07 01:16:44;;;;;;;0.60;0.20;;;19.20;99.90;;;;;;4917507;29;20548;-77
2022/07/07 01:19:12;;;;;;;0.60;0.20;;;19.20;99.90;;;;;;4917411;29;20457;-77
2022/07/07 01:21:48;;;;;;;0.60;0.20;;;19.20;99.90;;;;;;4921804;29;20495;-77
2022/07/07 01:24:17;;;;;;;0.60;0.10;;;19.10;99.90;;;;;;4942237;29;20985;-77
2022/07/07 01:26:45;;;;;;;0.60;0.20;;;19.10;99.90;;;;;;4936728;29;20448;-78
2022/07/07 01:29:13;;;;;;;0.60;0.20;;;19.10;99.90;;;;;;4936944;29;20536;-78
2022/07/07 01:31:41;;;;;;;0.60;0.20;;;19.10;99.90;;;;;;4937832;29;20458;-77
2022/07/07 01:34:09;;;;;;;0.60;0.10;;;19.00;99.90;;;;;;4947172;29;20475;-77
2022/07/07 01:36:37;;;;;;;0.70;0.40;;;18.90;99.90;;;;;;4942297;29;20614;-77
2022/07/07 01:39:05;;;;;;;0.60;0.20;;;18.90;99.90;;;;;;4941188;29;20480;-77
2022/07/07 01:41:35;;;;;;;0.60;0.20;;;18.90;99.90;;;;;;4945680;29;20456;-77
2022/07/07 01:44:03;;;;;;;0.77;0.40;;;18.90;99.90;;;;;;4969600;29;20475;-77
2022/07/07 01:46:31;;;;;;;0.60;0.10;;;18.80;99.90;;;;;;4947233;29;20508;-77
2022/07/07 01:48:59;;;;;;;0.60;0.10;;;18.80;99.90;;;;;;4939906;29;20534;-77
2022/07/07 01:51:27;;;;;;;0.60;0.10;;;18.80;99.90;;;;;;4957764;29;20465;-77
2022/07/07 01:53:55;;;;;;;0.77;0.43;;;18.80;99.90;;;;;;4957670;29;20506;-77
2022/07/07 01:56:23;;;;;;;0.93;0.33;;;18.80;99.90;;;;;;4955244;29;20478;-77
2022/07/07 01:58:52;;;;;;;0.90;0.53;;;18.80;99.90;;;;;;4954675;29;20482;-77
2022/07/07 02:01:21;;;;;;;0.60;0.10;;;18.70;99.90;;;;;;4954138;29;20541;-76
2022/07/07 02:03:49;;;;;;;0.60;0.10;;;18.70;99.90;;;;;;4950582;29;20490;-76
2022/07/07 02:06:17;;;;;;;0.60;0.20;;;18.70;99.90;;;;;;4942473;29;20765;-76
2022/07/07 02:08:45;;;;;;;1.00;0.37;;;18.80;99.90;;;;;;4954311;29;20459;-77
2022/07/07 02:11:13;;;;;;;0.60;0.20;;;18.80;99.90;;;;;;4955160;29;20451;-77
2022/07/07 02:13:42;;;;;;;0.60;0.10;;;18.80;99.90;;;;;;4944073;29;20491;-77
2022/07/07 02:16:12;;;;;;;0.60;0.20;;;18.80;99.90;;;;;;4935984;29;20456;-78
2022/07/07 02:18:41;;;;;;;0.60;0.10;;;18.80;99.90;;;;;;4954774;29;20479;-77
2022/07/07 02:21:10;;;;;;;0.70;0.40;;;18.80;99.90;;;;;;4943833;29;20524;-76
2022/07/07 02:23:39;;;;;;;0.60;0.10;;;18.80;99.90;;;;;;4948416;29;20535;-76
2022/07/07 02:26:07;;;;;;;0.60;0.20;;;18.90;99.90;;;;;;4943363;29;20586;-77
2022/07/07 02:28:35;;;;;;;0.60;0.10;;;18.80;99.90;;;;;;4935470;29;20785;-77
2022/07/07 02:31:03;;;;;;;0.60;0.10;;;18.80;99.90;;;;;;4938666;29;20455;-76
2022/07/07 02:33:33;;;;;;;0.60;0.10;;;18.90;99.90;;;;;;4943770;29;20483;-76
2022/07/07 02:36:03;;;;;;;0.60;0.10;;;18.90;99.90;;;;;;4938495;29;20943;-77
2022/07/07 02:38:32;;;;;;;0.60;0.13;;;18.90;99.90;;;;;;4946184;29;20486;-76
2022/07/07 02:41:00;;;;;;;0.60;0.10;;;18.90;99.90;;;;;;4942192;29;20543;-76
2022/07/07 02:43:28;;;;;;;0.60;0.13;;;18.90;99.90;;;;;;4946330;29;20557;-76
2022/07/07 02:45:56;;;;;;;0.60;0.10;;;18.80;99.90;;;;;;4954672;29;20914;-76
2022/07/07 02:48:27;;;;;;;0.60;0.20;;;18.80;99.90;;;;;;4945286;29;20473;-75
2022/07/07 02:50:57;;;;;;;0.90;0.70;;;18.80;99.90;;;;;;4964449;28;20518;-77
2022/07/07 02:53:25;;;;;;;0.60;0.10;;;18.90;99.90;;;;;;4957944;29;20476;-77
2022/07/07 02:55:54;;;;;;;0.60;0.10;;;18.90;99.90;;;;;;4952045;29;20977;-77
2022/07/07 02:58:22;;;;;;;0.60;0.20;;;18.80;99.90;;;;;;4948070;29;20480;-77
2022/07/07 03:00:51;;;;;;;0.60;0.10;;;18.80;99.90;;;;;;4949945;29;20467;-77
2022/07/07 03:03:19;;;;;;;0.70;0.30;;;18.70;99.90;;;;;;4950439;29;20530;-78
2022/07/07 03:05:47;;;;;;;0.70;0.20;;;18.60;99.90;;;;;;4960792;29;20604;-78
2022/07/07 03:08:17;;;;;;;0.60;0.20;;;18.60;99.90;;;;;;4924025;29;20479;-78
2022/07/07 03:10:45;;;;;;;0.60;0.10;;;18.50;99.90;;;;;;4939207;29;20546;-78
2022/07/07 03:13:13;;;;;;;0.60;0.10;;;18.50;99.90;;;;;;4948651;29;20480;-77
2022/07/07 03:15:41;;;;;;;0.60;0.10;;;18.50;99.90;;;;;;4935259;29;20444;-79
2022/07/07 03:18:09;;;;;;;0.60;0.17;;;18.40;99.90;;;;;;4930872;29;20483;-77
2022/07/07 03:20:37;;;;;;;0.60;0.10;;;18.40;99.90;;;;;;4932745;29;20542;-78
2022/07/07 03:23:05;;;;;;;0.60;0.10;;;18.20;99.90;;;;;;4948427;29;20574;-78
2022/07/07 03:25:35;;;;;;;0.60;0.10;;;18.20;99.90;;;;;;4950791;29;20508;-78
2022/07/07 03:28:03;;;;;;;1.93;0.50;;;18.10;99.90;;;;;;4943472;29;20455;-78
2022/07/07 03:30:31;;;;;;;0.90;0.73;;;18.10;99.90;;;;;;4959045;29;20458;-79
2022/07/07 03:32:59;;;;;;;0.83;0.40;;;18.00;99.90;;;;;;4962525;29;20481;-77
2022/07/07 03:35:26;;;;;;;0.60;0.20;;;18.00;99.90;;;;;;4957239;29;20443;-77
2022/07/07 03:37:54;;;;;;;0.60;0.10;;;18.00;99.90;;;;;;4957411;29;20467;-77
2022/07/07 03:40:22;;;;;;;0.67;0.20;;;18.00;99.90;;;;;;4955897;29;20451;-77
2022/07/07 03:42:52;;;;;;;0.60;0.20;;;17.90;99.90;;;;;;4952508;29;20490;-77
2022/07/07 03:45:20;;;;;;;0.60;0.20;;;17.80;99.90;;;;;;4954630;29;20522;-77
2022/07/07 03:47:50;;;;;;;0.60;0.20;;;17.80;99.90;;;;;;4949865;29;20451;-77
2022/07/07 03:50:17;;;;;;;4.73;4.20;;;17.80;99.90;;;;;;4934440;29;20963;-77
2022/07/07 03:52:45;;;;;;;0.60;0.20;;;17.80;99.90;;;;;;4936771;29;20608;-77
2022/07/07 03:55:13;;;;;;;0.60;0.10;;;17.80;99.90;;;;;;4946347;29;20462;-77
2022/07/07 03:57:41;;;;;;;0.60;0.10;;;19.60;99.90;;;;;;4936590;29;20474;-77
2022/07/07 04:00:12;;;;;;;0.60;0.10;;;17.90;99.90;;;;;;4954623;29;20514;-78
2022/07/07 04:02:40;;;;;;;0.60;0.10;;;18.00;99.90;;;;;;4954280;28;20569;-77
2022/07/07 04:05:09;;;;;;;0.60;0.20;;;18.00;99.90;;;;;;4949049;29;20561;-78
2022/07/07 04:07:37;;;;;;;0.60;0.10;;;18.00;99.90;;;;;;4958500;29;20873;-77
2022/07/07 04:10:06;;;;;;;0.60;0.20;;;18.00;99.90;;;;;;4958797;29;20454;-77
2022/07/07 04:12:34;;;;;;;0.60;0.20;;;18.10;99.90;;;;;;4958825;29;20459;-78
2022/07/07 04:15:02;;;;;;;0.60;0.20;;;18.10;99.90;;;;;;4921837;29;20471;-78
2022/07/07 04:17:32;;;;;;;0.60;0.10;;;18.20;99.90;;;;;;4939308;29;20459;-78
2022/07/07 04:20:00;;;;;;;0.60;0.20;;;18.20;99.90;;;;;;4947797;29;20573;-78
2022/07/07 04:22:27;;;;;;;1.10;0.80;;;18.20;99.90;;;;;;4959338;29;20551;-78
2022/07/07 04:24:55;;;;;;;0.60;0.10;;;18.10;99.90;;;;;;4941825;29;20543;-79
2022/07/07 04:27:23;;;;;;;0.60;0.20;;;18.10;99.90;;;;;;4939906;29;21055;-79
2022/07/07 04:29:51;;;;;;;0.60;0.10;;;18.00;99.90;;;;;;4949875;29;20448;-78
2022/07/07 04:32:19;;;;;;;0.70;0.30;;;17.90;99.90;;;;;;4949376;29;20472;-78
2022/07/07 04:34:49;;;;;;;0.97;0.47;;;17.90;99.90;;;;;;4954934;29;20479;-78
2022/07/07 04:37:16;;;;;;;0.60;0.30;;;18.00;99.90;;;;;;4945478;29;20627;-78
2022/07/07 04:39:44;;;;;;;0.60;0.20;;;17.90;99.90;;;;;;4958074;29;20493;-78
2022/07/07 04:42:12;;;;;;;0.73;0.20;;;17.90;99.90;;;;;;4955966;29;20486;-78
2022/07/07 04:44:40;;;;;;;0.60;0.10;;;17.90;99.90;;;;;;4940362;29;20550;-79
2022/07/07 04:47:09;;;;;;;0.60;0.20;;;17.90;99.90;;;;;;4948352;29;20905;-78
2022/07/07 04:49:37;;;;;;;0.60;0.10;;;17.90;99.90;;;;;;4941239;29;20476;-78
2022/07/07 04:52:06;;;;;;;0.60;0.10;;;18.10;99.90;;;;;;4940638;29;20490;-76
2022/07/07 04:54:34;;;;;;;0.73;0.57;;;18.10;99.90;;;;;;4938509;29;20546;-77
2022/07/07 04:57:02;;;;;;;0.60;0.20;;;18.20;99.90;;;;;;4951417;29;20458;-78
2022/07/07 04:59:30;;;;;;;0.60;0.10;;;18.30;99.90;;;;;;4947099;29;20487;-79
2022/07/07 05:01:58;;;;;;;1.10;0.67;;;18.40;99.90;;;;;;4958712;29;20542;-78
2022/07/07 05:04:26;;;;;;;0.60;0.10;;;18.40;99.90;;;;;;4943577;29;20483;-77
2022/07/07 05:06:54;;;;;;;0.70;0.30;;;18.40;99.90;;;;;;4952821;29;20455;-78
2022/07/07 05:09:23;;;;;;;0.60;0.20;;;18.30;99.90;;;;;;4959089;29;20881;-78
2022/07/07 05:11:52;;;;;;;0.60;0.10;;;18.40;99.90;;;;;;4958380;29;20538;-78
2022/07/07 05:14:20;;;;;;;0.60;0.10;;;18.40;99.90;;;;;;4922397;29;21009;-78
2022/07/07 05:16:48;;;;;;;0.60;0.10;;;18.40;99.90;;;;;;4953934;29;20458;-78
2022/07/07 05:19:16;;;;;;;0.60;0.10;;;18.40;99.90;;;;;;4936836;29;20479;-78
2022/07/07 05:21:44;;;;;;;0.60;0.20;;;18.50;99.90;;;;;;4923752;29;20455;-78
2022/07/07 05:24:12;;;;;;;0.60;0.10;;;18.50;99.90;;;;;;4952201;29;20471;-78
2022/07/07 05:26:41;;;;;;;0.60;0.10;;;18.50;99.90;;;;;;4942508;29;20462;-78
2022/07/07 05:29:09;;;;;;;0.60;0.10;;;18.60;99.90;;;;;;4944936;29;20537;-79
2022/07/07 05:31:38;;;;;;;1.27;0.43;;;;;;;;;;4953203;29;20457;-79
2022/07/07 05:34:06;;;;;;;1.00;0.50;;;;;;;;;;4942685;29;20874;-79
2022/07/07 05:36:34;;;;;;;0.70;0.33;;;;;;;;;;4953230;29;20498;-79
2022/07/07 05:39:02;;;;;;;1.33;0.80;;;18.40;99.90;;;;;;4961791;29;20997;-71
2022/07/07 05:41:30;;;;;;;1.10;0.60;;;18.40;99.90;;;;;;4958320;29;20447;-79
2022/07/07 05:44:00;;;;;;;0.60;0.20;;;;;;;;;;4963251;29;20553;-80
2022/07/07 05:46:28;;;;;;;0.80;0.40;;;18.20;99.90;;;;;;4944616;29;20507;-82
2022/07/07 05:48:56;;;;;;;0.70;0.40;;;18.10;99.90;;;;;;4958403;29;20495;-79
2022/07/07 05:51:25;;;;;;;0.83;0.83;;;;;;;;;;4962893;29;20430;-78
2022/07/07 05:53:53;;;;;;;0.80;0.40;;;18.30;99.90;;;;;;4955001;29;20480;-80
2022/07/07 05:56:21;;;;;;;0.60;0.20;;;18.30;99.90;;;;;;4952911;29;20531;-80
2022/07/07 05:58:49;;;;;;;0.60;0.20;;;18.30;99.90;;;;;;4941746;29;20940;-80
2022/07/07 06:01:19;;;;;;;0.60;0.20;;;;;;;;;;4943681;29;20478;-81
2022/07/07 06:03:48;;;;;;;1.33;1.23;;;18.30;99.90;;;;;;4950481;29;20582;-78
2022/07/07 06:06:16;;;;;;;0.60;0.20;;;18.20;99.90;;;;;;4951826;29;20514;-80
2022/07/07 06:08:46;;;;;;;0.70;0.20;;;;;;;;;;4938088;29;20580;-77
2022/07/07 06:11:15;;;;;;;0.60;0.10;;;;;;;;;;4947414;29;20451;-79
2022/07/07 06:13:48;;;;;;;0.70;0.30;;;18.30;99.90;;;;;;4948629;29;20487;-78
2022/07/07 06:16:16;;;;;;;0.60;0.20;;;18.30;99.90;;;;;;4959229;29;20447;-78
2022/07/07 06:18:46;;;;;;;0.60;0.13;;;18.20;99.90;;;;;;4948486;29;20459;-79
2022/07/07 06:21:14;;;;;;;0.70;0.40;;;18.30;99.90;;;;;;4944223;29;20579;-74
2022/07/07 06:23:42;;;;;;;0.60;0.10;;;18.30;99.90;;;;;;4932784;29;20479;-77
2022/07/07 06:26:11;;;;;;;1.73;1.33;;;18.20;99.90;;;;;;4940809;29;20535;-78
2022/07/07 06:28:39;;;;;;;0.60;0.23;;;18.20;99.90;;;;;;4938719;29;20460;-75
2022/07/07 06:31:07;;;;;;;0.60;0.10;;;18.20;99.90;;;;;;4929363;29;20460;-77
2022/07/07 06:33:36;;;;;;;2.60;2.10;;;18.20;99.90;;;;;;4937576;29;20483;-77
2022/07/07 06:36:06;;;;;;;0.60;0.10;;;18.20;99.90;;;;;;4942873;29;20458;-78
2022/07/07 06:38:34;;;;;;;0.60;0.10;;;18.20;99.90;;;;;;4940691;29;20452;-77
2022/07/07 06:41:03;;;;;;;0.60;0.10;;;18.20;99.90;;;;;;4942996;29;20572;-76
2022/07/07 06:43:32;;;;;;;1.17;1.07;;;;;;;;;;4938418;29;20820;-76
2022/07/07 06:46:00;;;;;;;0.70;0.40;;;18.20;99.90;;;;;;4942094;29;20542;-76
2022/07/07 06:48:28;;;;;;;1.53;0.70;;;;;;;;;;4937439;29;20482;-75
2022/07/07 06:50:56;;;;;;;0.60;0.20;;;18.20;99.90;;;;;;4941316;29;20497;-77
2022/07/07 06:53:26;;;;;;;0.60;0.10;;;18.20;99.90;;;;;;4956553;29;20962;-76
2022/07/07 06:55:54;;;;;;;0.60;0.20;;;18.30;99.90;;;;;;4956397;29;20454;-76
2022/07/07 06:58:22;;;;;;;0.60;0.20;;;18.30;99.90;;;;;;4954649;29;20489;-76
2022/07/07 07:00:51;;;;;;;0.70;0.30;;;18.30;99.90;;;;;;4956468;29;20569;-77
2022/07/07 07:03:18;;;;;;;0.70;0.40;;;20.10;99.90;;;;;;4940076;29;20498;-78
2022/07/07 07:05:47;;;;;;;0.60;0.10;;;18.50;99.90;;;;;;4946851;29;20459;-78
2022/07/07 07:08:15;;;;;;;0.60;0.20;;;18.50;99.90;;;;;;4958031;29;20525;-76
2022/07/07 07:10:44;;;;;;;0.60;0.17;;;18.50;99.90;;;;;;4958655;29;20473;-77
2022/07/07 07:13:12;;;;;;;0.60;0.20;;;18.60;99.90;;;;;;4940293;29;20497;-77
2022/07/07 07:15:40;;;;;;;0.80;0.60;;;18.70;99.90;;;;;;4945511;29;21036;-78
2022/07/07 07:18:08;;;;;;;0.60;0.20;;;18.80;99.90;;;;;;4948360;29;20490;-74
2022/07/07 07:20:36;;;;;;;0.60;0.20;;;18.90;99.90;;;;;;4959035;29;20530;-77
2022/07/07 07:23:04;;;;;;;0.70;0.30;;;19.10;99.90;;;;;;4956356;29;20567;-77
2022/07/07 07:25:32;;;;;;;0.60;0.20;;;19.10;99.90;;;;;;4940773;29;21014;-77
2022/07/07 07:28:02;;;;;;;0.70;0.33;;;19.20;99.90;;;;;;4943391;29;20528;-77
2022/07/07 07:30:30;;;;;;;0.60;0.20;;;19.20;99.90;;;;;;4961462;29;20526;-77
2022/07/07 07:32:58;;;;;;;0.60;0.10;;;19.20;99.90;;;;;;4943413;29;20499;-77
2022/07/07 07:35:26;;;;;;;0.60;0.17;;;19.30;99.90;;;;;;4946148;29;20446;-77
2022/07/07 07:37:54;;;;;;;0.60;0.20;;;19.30;99.90;;;;;;4959720;28;20537;-77
2022/07/07 07:40:22;;;;;;;0.60;0.13;;;19.30;99.90;;;;;;4957703;29;20511;-77
2022/07/07 07:42:50;;;;;;;0.60;0.10;;;19.30;99.90;;;;;;4945270;29;20471;-76
2022/07/07 07:45:20;;;;;;;0.60;0.20;;;19.30;99.90;;;;;;4962948;29;20458;-78
2022/07/07 07:47:48;;;;;;;0.60;0.20;;;19.30;99.90;;;;;;4959957;29;20557;-76
2022/07/07 07:50:17;;;;;;;1.20;0.40;;;19.40;99.90;;;;;;4941013;29;20461;-77
2022/07/07 07:52:47;;;;;;;0.60;0.10;;;19.40;99.90;;;;;;4942962;29;20467;-77
2022/07/07 07:55:17;;;;;;;0.70;0.40;;;19.40;99.90;;;;;;4940328;29;20463;-79
2022/07/07 07:57:46;;;;;;;0.60;0.10;;;19.40;99.90;;;;;;4947542;29;20538;-78
2022/07/07 08:00:16;;;;;;;2.03;0.30;;;19.40;99.90;;;;;;4943989;29;21040;-77
2022/07/07 08:02:46;;;;;;;1.20;0.90;;;19.50;99.90;;;;;;4945525;29;20494;-77
2022/07/07 08:05:16;;;;;;;2.10;0.87;;;19.50;99.90;;;;;;4946310;29;20523;-77
2022/07/07 08:07:45;;;;;;;0.60;0.20;;;19.60;99.90;;;;;;4945587;29;20530;-78
2022/07/07 08:10:14;;;;;;;1.70;1.60;;;19.70;99.90;;;;;;4947137;29;20448;-77
2022/07/07 08:12:44;;;;;;;4.07;3.30;;;19.90;99.90;;;;;;4937111;29;21007;-78
2022/07/07 08:15:14;;;;;;;0.90;0.77;;;19.90;99.90;;;;;;4941371;29;20574;-78
2022/07/07 08:17:42;;;;;;;0.70;0.40;;;19.90;99.90;;;;;;4944129;29;20452;-77
2022/07/07 08:20:12;;;;;;;0.77;0.30;;;19.90;99.90;;;;;;4940234;29;20463;-77
2022/07/07 08:22:40;;;;;;;0.77;0.50;;;;;;;;;;4944130;29;20491;-77
2022/07/07 08:25:08;;;;;;;0.70;0.40;;;20.20;99.90;;;;;;4947939;29;20458;-77
2022/07/07 08:27:36;;;;;;;0.70;0.30;;;20.20;99.90;;;;;;4946154;29;20487;-77
2022/07/07 08:30:06;;;;;;;0.90;0.40;;;20.10;99.90;;;;;;4943506;29;20460;-79
2022/07/07 08:32:34;;;;;;;0.97;0.77;;;20.00;99.90;;;;;;4942365;29;20621;-79
2022/07/07 08:35:02;;;;;;;1.03;0.50;;;20.00;99.90;;;;;;4947452;29;20492;-79
2022/07/07 08:37:31;;;;;;;0.70;0.30;;;20.10;99.90;;;;;;4944813;29;20961;-79
2022/07/07 08:39:59;;;;;;;0.67;0.20;;;20.20;99.90;;;;;;4948640;29;20993;-76
2022/07/07 08:42:27;;;;;;;0.90;0.50;;;20.20;99.90;;;;;;4947672;29;20491;-77
2022/07/07 08:44:55;;;;;;;0.90;0.30;;;20.20;99.90;;;;;;4939387;29;20452;-76
2022/07/07 08:47:25;;;;;;;0.80;0.40;;;20.10;99.90;;;;;;4941071;29;20468;-76
2022/07/07 08:49:53;;;;;;;0.80;0.40;;;20.00;99.90;;;;;;4944560;28;20455;-77
2022/07/07 08:52:21;;;;;;;0.90;0.60;;;20.10;99.90;;;;;;4939400;29;20494;-76
2022/07/07 08:54:51;;;;;;;0.60;0.10;;;20.10;99.90;;;;;;4939619;29;21009;-75
2022/07/07 08:57:19;;;;;;;0.70;0.20;;;;;;;;;;4956815;29;20542;-77
2022/07/07 08:59:48;;;;;;;0.87;0.43;;;;;;;;;;4957821;29;20447;-76
2022/07/07 09:02:16;;;;;;;0.80;0.40;;;20.10;99.90;;;;;;4958356;29;20474;-76
2022/07/07 09:04:45;;;;;;;0.70;0.40;;;20.10;99.90;;;;;;4958735;29;20443;-79
2022/07/07 09:07:13;;;;;;;1.97;0.90;;;20.10;99.90;;;;;;4939838;29;20452;-70
2022/07/07 09:09:43;;;;;;;0.70;0.30;;;20.10;99.90;;;;;;4936814;29;20448;-70
2022/07/07 09:12:14;;;;;;;1.27;0.70;;;20.20;99.90;;;;;;4936856;29;20516;-70
2022/07/07 09:14:44;;;;;;;0.70;0.20;;;20.20;99.90;;;;;;4946700;29;20478;-69
2022/07/07 09:17:31;;;;;;;0.63;0.20;;;20.40;99.90;;;;;;4955710;29;20451;-73
2022/07/07 09:20:03;;;;;;;0.70;0.20;;;20.40;99.90;;;;;;4944689;29;21053;-71
2022/07/07 09:22:49;;;;;;;0.70;0.10;;;20.50;99.90;;;;;;4936799;29;20994;-72
2022/07/07 09:25:18;;;;;;;0.80;0.30;;;20.50;99.90;;;;;;4951034;29;20992;-72
2022/07/07 09:27:56;;;;;;;0.70;0.20;;;20.50;99.90;;;;;;4949937;29;20452;-74
2022/07/07 09:30:33;;;;;;;0.60;0.20;;;20.50;99.90;;;;;;4936997;29;20539;-74
2022/07/07 09:33:04;;;;;;;0.60;0.20;;;20.40;1.00;;;;;;4943933;29;20529;-73
2022/07/07 09:38:22;;;;;;;0.60;0.10;;;20.10;1.00;;;;;;4955518;29;20550;-72
2022/07/07 09:40:59;;;;;;;0.60;0.10;;;20.10;1.00;;;;;;4956009;29;20450;-73
2022/07/07 09:43:31;;;;;;;0.60;0.10;;;20.10;1.00;;;;;;4952117;29;20474;-71
2022/07/07 09:46:10;;;;;;;0.60;0.10;;;20.10;1.00;;;;;;4956144;29;20490;-72
2022/07/07 09:48:40;;;;;;;0.60;0.20;;;20.10;1.00;;;;;;4958219;29;20443;-74
2022/07/07 09:51:20;;;;;;;0.70;0.20;;;20.20;1.00;;;;;;4957079;29;20537;-72
2022/07/07 09:54:03;;;;;;;0.60;0.10;;;20.20;1.00;;;;;;4955087;29;20467;-74
2022/07/07 09:56:33;;;;;;;0.60;0.10;;;20.20;1.00;;;;;;4959800;29;20446;-81
2022/07/07 09:59:05;;;;;;;0.60;0.20;;;20.30;1.00;;;;;;4962243;29;20435;-81
2022/07/07 10:01:38;;;;;;;0.60;0.20;;;20.50;1.00;;;;;;4938415;29;20493;-81
2022/07/07 10:04:08;;;;;;;0.67;0.30;;;20.50;1.00;;;;;;4941548;29;20562;-81
2022/07/07 10:06:38;;;;;;;0.60;0.10;;;20.60;1.00;;;;;;4942455;29;20544;-81
2022/07/07 10:09:08;;;;;;;0.70;0.10;;;20.60;1.00;;;;;;4949040;29;20480;-79
2022/07/07 10:11:39;;;;;;;0.70;0.10;;;20.80;1.00;;;;;;4956879;28;20428;-81
2022/07/07 10:14:16;;;;;;;0.70;0.20;;;21.00;1.00;;;;;;4952747;29;20477;-80
2022/07/07 10:16:48;;;;;;;0.70;0.17;;;21.10;1.00;;;;;;4951240;29;20523;-79
2022/07/07 10:19:18;;;;;;;0.70;0.10;;;21.20;1.00;;;;;;4951700;29;20440;-79
2022/07/07 10:21:47;;;;;;;0.70;0.10;;;21.20;1.00;;;;;;4955167;29;20510;-81
2022/07/07 10:24:18;;;;;;;0.70;0.20;;;21.00;1.00;;;;;;4957905;29;20531;-78
2022/07/07 10:26:50;;;;;;;0.70;0.20;;;21.00;1.00;;;;;;4954673;29;20514;-78
2022/07/07 10:29:38;;;;;;;0.60;0.10;;;21.00;1.00;;;;;;4957891;29;20452;-79
2022/07/07 10:32:07;;;;;;;0.70;0.20;;;21.10;1.00;;;;;;4959689;29;20461;-81
2022/07/07 10:34:37;;;;;;;0.70;0.10;;;21.10;1.00;;;;;;4951283;29;20470;-79
2022/07/07 10:37:07;;;;;;;0.70;0.10;;;21.20;99.90;;;;;;4946426;29;20515;-79
2022/07/07 10:39:48;;;;;;;0.70;0.10;;;21.20;99.90;;;;;;4950559;29;20522;-81
2022/07/07 10:42:47;;;;;;;0.70;0.20;;;21.30;99.90;;;;;;4954380;29;20559;-79
2022/07/07 10:45:18;;;;;;;2.13;1.17;;;21.30;99.90;;;;;;4953807;29;20448;-79
2022/07/07 10:47:46;;;;;;;0.70;0.10;;;21.30;99.90;;;;;;4953189;29;20929;-79
2022/07/07 10:50:30;;;;;;;0.70;0.10;;;21.20;99.90;;;;;;4953009;29;20463;-79
2022/07/07 10:52:59;;;;;;;0.70;0.10;;;21.10;99.90;;;;;;4954290;29;20475;-80
2022/07/07 10:55:54;;;;;;;0.70;0.20;;;21.10;99.90;;;;;;4957508;29;20486;-80
2022/07/07 10:58:55;;;;;;;0.60;0.10;;;21.00;99.90;;;;;;4951811;29;20448;-80
2022/07/07 11:01:26;;;;;;;0.70;0.20;;;21.00;99.90;;;;;;4952720;29;20440;-78
2022/07/07 11:03:55;;;;;;;0.70;0.20;;;21.00;99.90;;;;;;4951032;29;20582;-80
2022/07/07 11:06:23;;;;;;;0.70;0.20;;;21.00;99.90;;;;;;4949622;29;20879;-80
2022/07/07 11:08:59;;;;;;;0.90;0.73;;;21.00;99.90;;;;;;4951181;29;20447;-80
2022/07/07 11:11:29;;;;;;;0.70;0.10;;;21.10;99.90;;;;;;4943222;29;20800;-79
2022/07/07 11:14:09;;;;;;;0.70;0.20;;;21.20;99.90;;;;;;4943546;29;20482;-78
2022/07/07 11:16:40;;;;;;;0.70;0.10;;;21.20;99.90;;;;;;4947370;29;20459;-79
2022/07/07 11:19:10;;;;;;;0.70;0.10;;;21.20;99.90;;;;;;4947994;29;20475;-79
2022/07/07 11:21:44;;;;;;;0.70;0.10;;;21.30;99.90;;;;;;4950138;29;20482;-81
2022/07/07 11:24:20;;;;;;;0.70;0.13;;;21.30;99.90;;;;;;4945792;29;20936;-79
2022/07/07 11:26:56;;;;;;;0.70;0.17;;;21.50;99.90;;;;;;4951936;29;20535;-79
2022/07/07 11:29:24;;;;;;;0.90;0.20;;;21.50;99.90;;;;;;4954186;29;20484;-80
2022/07/07 11:32:02;;;;;;;0.70;0.17;;;;;;;;;;4939119;29;20464;-80
2022/07/07 11:34:41;;;;;;;0.70;0.17;;;21.50;99.90;;;;;;4958306;29;20856;-80
2022/07/07 11:37:24;;;;;;;0.80;0.57;;;21.60;99.90;;;;;;4954316;29;20459;-81
2022/07/07 11:39:53;;;;;;;0.70;0.30;;;21.60;99.90;;;;;;4951109;29;20542;-81
2022/07/07 11:42:21;;;;;;;0.70;0.10;;;21.80;99.90;;;;;;4951855;29;20482;-79
2022/07/07 11:44:49;;;;;;;0.70;0.20;;;21.80;99.90;;;;;;4955650;29;20432;-79
2022/07/07 11:47:19;;;;;;;0.70;0.20;;;21.80;99.90;;;;;;4964081;29;20457;-78
2022/07/07 11:49:47;;;;;;;0.70;0.10;;;21.90;99.90;;;;;;4951559;29;20470;-80
2022/07/07 11:52:16;;;;;;;0.70;0.10;;;21.70;99.90;;;;;;4965138;29;20443;-80
2022/07/07 11:54:47;;;;;;;0.70;0.20;;;21.70;99.90;;;;;;4966555;29;20470;-79
2022/07/07 11:57:27;;;;;;;0.70;0.20;;;21.50;99.90;;;;;;4965660;29;20435;-79
2022/07/07 11:59:56;;;;;;;0.70;0.10;;;21.40;99.90;;;;;;4964730;29;20485;-81
2022/07/07 12:02:26;;;;;;;0.70;0.20;;;21.30;99.90;;;;;;4949110;29;20480;-80
2022/07/07 12:04:54;;;;;;;0.70;0.20;;;;;;;;;;4948436;29;20471;-78
2022/07/07 12:07:23;;;;;;;0.70;0.10;;;;;;;;;;4946448;29;20555;-78
2022/07/07 12:09:51;;;;;;;0.70;0.10;;;21.20;99.90;;;;;;4950708;29;20432;-78
2022/07/07 12:12:20;;;;;;;0.70;0.20;;;21.20;99.90;;;;;;4956221;29;20467;-78
2022/07/07 12:14:48;;;;;;;0.77;0.33;;;21.30;99.90;;;;;;4952909;29;20487;-77
2022/07/07 12:17:36;;;;;;;0.70;0.20;;;21.30;99.90;;;;;;4949510;29;20503;-79
2022/07/07 12:20:05;;;;;;;0.70;0.20;;;21.30;99.90;;;;;;4943894;29;20611;-81
2022/07/07 12:22:34;;;;;;;0.70;0.30;;;21.30;99.90;;;;;;4962442;28;20481;-81
2022/07/07 12:25:06;;;;;;;0.70;0.20;;;21.30;99.90;;;;;;4966841;29;20533;-80
2022/07/07 12:27:57;;;;;;;0.70;0.20;;;21.30;99.90;;;;;;4963210;29;20440;-82
2022/07/07 12:30:26;;;;;;;0.70;0.20;;;21.40;99.90;;;;;;4942596;29;20535;-79
2022/07/07 12:32:56;;;;;;;1.03;0.20;;;21.30;99.90;;;;;;4960012;29;20514;-81
2022/07/07 12:35:29;;;;;;;0.70;0.10;;;21.30;99.90;;;;;;4968151;29;20443;-81
2022/07/07 12:38:00;;;;;;;0.70;0.20;;;21.40;99.90;;;;;;4960407;29;20439;-82
2022/07/07 12:40:29;;;;;;;0.70;0.23;;;21.40;99.90;;;;;;4948350;29;20464;-80
2022/07/07 12:42:58;;;;;;;0.70;0.20;;;21.40;99.90;;;;;;4954113;29;20458;-80
2022/07/07 12:45:26;;;;;;;0.70;0.20;;;21.60;99.90;;;;;;4970561;29;20514;-79
2022/07/07 12:47:56;;;;;;;0.70;0.20;;;21.70;99.90;;;;;;4958491;29;20547;-80
2022/07/07 12:50:26;;;;;;;0.70;0.10;;;21.90;99.90;;;;;;4954911;29;20528;-80
2022/07/07 12:52:59;;;;;;;0.70;0.20;;;22.10;99.90;;;;;;4952409;29;20480;-81
2022/07/07 12:55:35;;;;;;;0.90;0.60;;;22.20;99.90;;;;;;4968026;29;20546;-81
2022/07/07 12:58:06;;;;;;;0.70;0.20;;;22.30;99.90;;;;;;4957696;29;20452;-80
2022/07/07 13:00:34;;;;;;;0.70;0.10;;;;;;;;;;4959730;28;20546;-80
2022/07/07 13:03:04;;;;;;;0.70;0.23;;;22.20;99.90;;;;;;4958263;29;20499;-80
2022/07/07 13:05:32;;;;;;;0.70;0.20;;;21.90;99.90;;;;;;4958060;28;20570;-79
2022/07/07 13:08:02;;;;;;;0.70;0.20;;;;;;;;;;4952669;29;20440;-81
2022/07/07 13:10:30;;;;;;;0.70;0.10;;;21.70;99.90;;;;;;4958720;29;20467;-81